»·PEaware :: N143VT KFAT-KBLH

N143VT :: KFAT-KBLH

FLIGHT INFORMATION

Flight Status: Arrived
Operator: Privately registered:
United States
More flights under this callsign
Pilot: Anonymous 16492 (16492)
Aircraft: Unknown
(EPIC)
More flights by this aircraft type
Origin: KFAT Fresno Yosemite Intl
United States
Destination: KBLH Blythe
United States
More flights between these airports :: More routes between these airports
Route: +OAL4 OAL TEZUM V135 BLH
File this flight plan on PilotEdge
Remarks:
Altitude:
(Current/Filed)
29,000ft
Speed:
(Current/Filed)
300kts
Departed: 27-Feb-18 06:06 PM
Arrived: 27-Feb-18 08:08 PM
Distance/Time
Traveled:
310nm/2:02
Distance/Time
To Go:
Arrived

Flight Plot

Page will automatically refresh every two minutes.

Flight plan parsing failed; only flown route is shown


Map Options




Map Legend


Flown Route
Filed Route
Departure Airport
Arrival Airport
Navaid (VOR, NDB)
Fix

Horizontal Profiles

Position Reports

Time Latitude Longitude Heading Altitude Ground
Speed
27-Feb-18 17:48 36.776415 -119.726401 306 338ft 0kts
27-Feb-18 17:49 36.776415 -119.726401 306 338ft 0kts
27-Feb-18 17:50 36.776415 -119.726401 306 338ft 0kts
27-Feb-18 17:51 36.776415 -119.726401 306 338ft 0kts
27-Feb-18 17:52 36.776415 -119.726401 306 338ft 0kts
27-Feb-18 17:53 36.776415 -119.726401 306 338ft 0kts
27-Feb-18 17:54 36.776415 -119.726401 306 338ft 0kts
27-Feb-18 17:55 36.776415 -119.726401 306 338ft 0kts
27-Feb-18 17:56 36.776415 -119.726401 306 338ft 0kts
27-Feb-18 17:57 36.776415 -119.726401 306 338ft 0kts
27-Feb-18 17:58 36.776415 -119.726401 306 338ft 0kts
27-Feb-18 17:59 36.776415 -119.726401 306 338ft 0kts
27-Feb-18 18:00 36.776415 -119.726401 306 338ft 0kts
27-Feb-18 18:01 36.776415 -119.726401 306 338ft 0kts
27-Feb-18 18:02 36.776415 -119.726401 306 338ft 0kts
27-Feb-18 18:03 36.776415 -119.726401 306 338ft 0kts
27-Feb-18 18:04 36.776415 -119.726401 306 338ft 0kts
27-Feb-18 18:05 36.776415 -119.726401 306 338ft 0kts
27-Feb-18 18:06 36.776658 -119.726683 358 338ft 4kts
27-Feb-18 18:07 36.776741 -119.726666 14 338ft 0kts
27-Feb-18 18:08 36.776933 -119.726557 32 338ft 12kts
27-Feb-18 18:09 36.775317 -119.721371 124 338ft 26kts
27-Feb-18 18:10 36.771205 -119.714150 125 338ft 24kts
27-Feb-18 18:11 36.769979 -119.711058 35 338ft 0kts
27-Feb-18 18:12 36.770014 -119.711027 35 338ft 3kts
27-Feb-18 18:13 36.783367 -119.733801 301 966ft 152kts
27-Feb-18 18:14 36.807959 -119.776521 305 3300ft 158kts
27-Feb-18 18:15 36.835758 -119.822365 309 5943ft 171kts
27-Feb-18 18:16 36.870796 -119.859355 31 7607ft 205kts
27-Feb-18 18:17 36.908927 -119.816225 40 9969ft 187kts
27-Feb-18 18:18 36.954308 -119.764940 40 10711ft 217kts
27-Feb-18 18:19 36.991659 -119.722741 37 13514ft 160kts
27-Feb-18 18:20 37.026029 -119.684187 38 15204ft 167kts
27-Feb-18 18:21 37.060511 -119.645406 38 16802ft 168kts
27-Feb-18 18:22 37.094796 -119.606772 37 18236ft 167kts
27-Feb-18 18:23 37.128702 -119.570753 36 19525ft 165kts
27-Feb-18 18:24 37.163929 -119.533948 35 20689ft 166kts
27-Feb-18 18:25 37.199232 -119.496892 35 21730ft 166kts
27-Feb-18 18:26 37.234577 -119.459675 34 22648ft 167kts
27-Feb-18 18:27 37.270056 -119.422237 34 23455ft 168kts
27-Feb-18 18:28 37.305753 -119.384510 34 24178ft 168kts
27-Feb-18 18:29 37.341439 -119.346625 35 24803ft 169kts
27-Feb-18 18:30 37.377055 -119.307792 34 25382ft 170kts
27-Feb-18 18:31 37.412926 -119.269239 34 25903ft 170kts
27-Feb-18 18:32 37.448876 -119.230813 34 26343ft 171kts
27-Feb-18 18:33 37.485061 -119.192199 34 26751ft 171kts
27-Feb-18 18:34 37.521353 -119.153449 33 27076ft 172kts
27-Feb-18 18:35 37.557616 -119.114661 33 27388ft 172kts
27-Feb-18 18:36 37.594136 -119.075643 33 27647ft 172kts
27-Feb-18 18:37 37.630503 -119.036691 33 27867ft 173kts
27-Feb-18 18:38 37.667487 -118.997055 33 28015ft 177kts
27-Feb-18 18:39 37.705598 -118.956136 33 28095ft 182kts
27-Feb-18 18:40 37.744718 -118.914101 34 28189ft 187kts
27-Feb-18 18:41 37.784786 -118.870973 34 28255ft 192kts
27-Feb-18 18:42 37.826046 -118.826491 35 28315ft 198kts
27-Feb-18 18:43 37.868244 -118.780886 35 28401ft 202kts
27-Feb-18 18:44 37.911174 -118.734448 36 28914ft 207kts
27-Feb-18 18:45 37.945688 -118.668944 62 29025ft 248kts
27-Feb-18 18:46 37.962326 -118.580413 74 29036ft 267kts
27-Feb-18 18:47 37.970209 -118.485712 77 29047ft 273kts
27-Feb-18 18:48 37.975570 -118.389510 79 29049ft 276kts
27-Feb-18 18:49 37.979841 -118.295092 80 29051ft 278kts
27-Feb-18 18:50 37.984296 -118.196810 79 29059ft 279kts
27-Feb-18 18:51 37.988660 -118.098893 79 29056ft 280kts
27-Feb-18 18:52 37.992928 -118.001435 79 29050ft 281kts
27-Feb-18 18:53 37.997174 -117.902339 79 29023ft 281kts
27-Feb-18 18:54 38.001350 -117.803446 79 29000ft 282kts
27-Feb-18 18:55 38.005474 -117.704262 79 28993ft 282kts
27-Feb-18 18:56 37.950109 -117.633454 150 28988ft 321kts
27-Feb-18 18:57 37.869219 -117.586115 150 28985ft 322kts
27-Feb-18 18:58 37.788027 -117.538453 150 28984ft 322kts
27-Feb-18 18:59 37.705648 -117.494448 155 28990ft 324kts
27-Feb-18 19:00 37.626210 -117.443415 141 28987ft 319kts
27-Feb-18 19:01 37.552377 -117.382050 140 28993ft 318kts
27-Feb-18 19:02 37.479774 -117.320218 141 28989ft 319kts
27-Feb-18 19:03 37.406237 -117.257652 140 28993ft 320kts
27-Feb-18 19:04 37.333014 -117.195448 140 28989ft 320kts
27-Feb-18 19:05 37.259352 -117.133029 140 28994ft 320kts
27-Feb-18 19:06 37.185497 -117.070527 141 28992ft 320kts
27-Feb-18 19:07 37.112063 -117.008593 143 28993ft 319kts
27-Feb-18 19:08 37.038881 -116.946958 146 28994ft 318kts
27-Feb-18 19:09 36.965735 -116.885489 150 28988ft 311kts
27-Feb-18 19:10 36.897595 -116.828591 150 28963ft 296kts
27-Feb-18 19:11 36.830151 -116.772271 150 28944ft 289kts
27-Feb-18 19:12 36.766069 -116.713633 147 28937ft 286kts
27-Feb-18 19:13 36.703387 -116.653655 146 28938ft 284kts
27-Feb-18 19:14 36.641549 -116.594149 146 28937ft 282kts
27-Feb-18 19:15 36.579478 -116.534499 146 28939ft 281kts
27-Feb-18 19:16 36.517666 -116.475208 146 28935ft 281kts
27-Feb-18 19:17 36.455834 -116.416021 146 28938ft 281kts
27-Feb-18 19:18 36.394057 -116.357000 146 28936ft 280kts
27-Feb-18 19:19 36.333102 -116.298896 147 28934ft 280kts
27-Feb-18 19:20 36.281627 -116.249919 147 28933ft 279kts
27-Feb-18 19:21 36.210049 -116.181946 147 28935ft 279kts
27-Feb-18 19:22 36.148604 -116.123861 144 28965ft 283kts
27-Feb-18 19:23 36.085339 -116.063924 144 28972ft 294kts
27-Feb-18 19:24 36.019882 -116.002148 144 28972ft 300kts
27-Feb-18 19:25 35.964596 -115.950118 144 28973ft 303kts
27-Feb-18 19:26 35.892011 -115.881955 144 28976ft 305kts
27-Feb-18 19:27 35.839948 -115.833155 144 28983ft 306kts
27-Feb-18 19:28 35.772655 -115.770201 144 29000ft 306kts
27-Feb-18 19:29 35.704950 -115.707006 144 29008ft 307kts
27-Feb-18 19:30 35.637092 -115.643746 144 29011ft 307kts
27-Feb-18 19:31 35.568897 -115.580264 144 29012ft 308kts
27-Feb-18 19:32 35.501053 -115.517243 144 29008ft 308kts
27-Feb-18 19:33 35.432874 -115.454128 144 29011ft 308kts
27-Feb-18 19:34 35.364543 -115.390996 144 29011ft 308kts
27-Feb-18 19:35 35.296488 -115.328262 145 29015ft 308kts
27-Feb-18 19:36 35.228167 -115.265424 145 29034ft 307kts
27-Feb-18 19:37 35.161050 -115.203829 144 29050ft 307kts
27-Feb-18 19:38 35.106165 -115.126002 126 29050ft 312kts
27-Feb-18 19:39 35.059324 -115.036723 128 29051ft 316kts
27-Feb-18 19:40 35.012488 -114.946265 132 29050ft 317kts
27-Feb-18 19:41 34.965532 -114.855912 134 29047ft 317kts
27-Feb-18 19:42 34.918994 -114.766440 136 29044ft 315kts
27-Feb-18 19:43 34.878963 -114.689670 138 29056ft 313kts
27-Feb-18 19:44 34.832147 -114.600238 138 29056ft 313kts
27-Feb-18 19:45 34.785311 -114.512231 148 29042ft 298kts
27-Feb-18 19:46 34.720644 -114.496327 196 29056ft 230kts
27-Feb-18 19:47 34.657817 -114.481425 159 29053ft 279kts
27-Feb-18 19:48 34.590577 -114.424141 160 27397ft 319kts
27-Feb-18 19:49 34.512930 -114.366524 160 25485ft 340kts
27-Feb-18 19:50 34.443767 -114.318084 161 24058ft 330kts
27-Feb-18 19:51 34.379958 -114.334816 227 24019ft 232kts
27-Feb-18 19:52 34.335328 -114.391100 226 22586ft 251kts
27-Feb-18 19:53 34.284992 -114.454116 227 20639ft 273kts
27-Feb-18 19:54 34.231514 -114.520924 226 18609ft 281kts
27-Feb-18 19:55 34.176915 -114.588939 226 16577ft 287kts
27-Feb-18 19:56 34.125374 -114.653012 226 14692ft 288kts
27-Feb-18 19:57 34.054805 -114.687482 192 12752ft 296kts
27-Feb-18 19:58 33.974360 -114.701868 190 10744ft 279kts
27-Feb-18 19:59 33.901948 -114.713440 190 8733ft 254kts
27-Feb-18 20:00 33.838455 -114.723377 190 8004ft 198kts
27-Feb-18 20:01 33.784228 -114.731909 190 6541ft 213kts
27-Feb-18 20:02 33.729002 -114.740498 190 6004ft 175kts
27-Feb-18 20:03 33.676585 -114.748606 189 6012ft 203kts
27-Feb-18 20:04 33.618786 -114.757205 189 6010ft 213kts
27-Feb-18 20:05 33.574520 -114.791090 259 6005ft 213kts
27-Feb-18 20:06 33.553859 -114.858505 209 4867ft 249kts
27-Feb-18 20:07 33.504615 -114.906069 279 3497ft 224kts
27-Feb-18 20:08 33.541017 -114.910184 67 3486ft 120kts
27-Feb-18 20:09 33.559092 -114.861343 66 2415ft 216kts
27-Feb-18 20:10 33.580983 -114.802363 67 1980ft 154kts
27-Feb-18 20:11 33.598008 -114.761912 63 1389ft 137kts
27-Feb-18 20:12 33.605952 -114.718790 89 1033ft 133kts
27-Feb-18 20:13 33.611533 -114.672749 44 1643ft 152kts
27-Feb-18 20:14 33.618842 -114.693968 239 715ft 106kts
27-Feb-18 20:15 33.616353 -114.716227 214 401ft 15kts
27-Feb-18 20:16 33.614386 -114.712712 187 401ft 0kts
27-Feb-18 20:17 33.614386 -114.712712 187 401ft 0kts
27-Feb-18 20:18 33.614386 -114.712712 187 401ft 0kts
27-Feb-18 20:19 33.614386 -114.712712 187 401ft 0kts
27-Feb-18 20:20 33.614386 -114.712712 187 401ft 0kts

Navigation Log

Ident Type
Flight plan parsing failed, navigation log unavailable